sensor_id;sensor_type;location;lat;lon;timestamp;P1;durP1;ratioP1;P2;durP2;ratioP2
45694;SDS011;31408;45.468;9.124;2022-07-29T00:01:55;2.28;;;1.70;;
45694;SDS011;31408;45.468;9.124;2022-07-29T00:04:20;2.55;;;1.15;;
45694;SDS011;31408;45.468;9.124;2022-07-29T00:06:45;2.33;;;1.40;;
45694;SDS011;31408;45.468;9.124;2022-07-29T00:09:11;1.50;;;1.17;;
45694;SDS011;31408;45.468;9.124;2022-07-29T00:11:36;1.65;;;0.98;;
45694;SDS011;31408;45.468;9.124;2022-07-29T00:14:02;5.53;;;1.95;;
45694;SDS011;31408;45.468;9.124;2022-07-29T00:16:28;2.30;;;1.10;;
45694;SDS011;31408;45.468;9.124;2022-07-29T00:18:53;2.40;;;1.42;;
45694;SDS011;31408;45.468;9.124;2022-07-29T00:21:19;1.83;;;1.35;;
45694;SDS011;31408;45.468;9.124;2022-07-29T00:23:44;4.47;;;1.17;;
45694;SDS011;31408;45.468;9.124;2022-07-29T00:26:09;3.78;;;1.00;;
45694;SDS011;31408;45.468;9.124;2022-07-29T00:28:35;1.70;;;1.25;;
45694;SDS011;31408;45.468;9.124;2022-07-29T00:31:00;1.95;;;0.90;;
45694;SDS011;31408;45.468;9.124;2022-07-29T00:33:26;1.70;;;0.98;;
45694;SDS011;31408;45.468;9.124;2022-07-29T00:35:51;2.33;;;1.33;;
45694;SDS011;31408;45.468;9.124;2022-07-29T00:38:18;3.33;;;1.48;;
45694;SDS011;31408;45.468;9.124;2022-07-29T00:40:45;3.05;;;1.40;;
45694;SDS011;31408;45.468;9.124;2022-07-29T00:43:12;3.17;;;1.30;;
45694;SDS011;31408;45.468;9.124;2022-07-29T00:45:39;2.55;;;1.38;;
45694;SDS011;31408;45.468;9.124;2022-07-29T00:48:05;3.33;;;1.80;;
45694;SDS011;31408;45.468;9.124;2022-07-29T00:50:31;1.77;;;1.00;;
45694;SDS011;31408;45.468;9.124;2022-07-29T00:52:58;4.30;;;1.30;;
45694;SDS011;31408;45.468;9.124;2022-07-29T00:55:24;3.35;;;1.88;;
45694;SDS011;31408;45.468;9.124;2022-07-29T00:57:49;3.25;;;1.45;;
45694;SDS011;31408;45.468;9.124;2022-07-29T01:00:16;2.78;;;1.35;;
45694;SDS011;31408;45.468;9.124;2022-07-29T01:02:46;1.58;;;1.25;;
45694;SDS011;31408;45.468;9.124;2022-07-29T01:05:13;2.33;;;1.33;;
45694;SDS011;31408;45.468;9.124;2022-07-29T01:07:39;2.33;;;1.02;;
45694;SDS011;31408;45.468;9.124;2022-07-29T01:10:04;2.22;;;1.00;;
45694;SDS011;31408;45.468;9.124;2022-07-29T01:12:31;2.25;;;1.58;;
45694;SDS011;31408;45.468;9.124;2022-07-29T01:14:58;1.92;;;1.20;;
45694;SDS011;31408;45.468;9.124;2022-07-29T01:20:12;2.80;;;1.45;;
45694;SDS011;31408;45.468;9.124;2022-07-29T01:31:55;4.53;;;0.93;;
45694;SDS011;31408;45.468;9.124;2022-07-29T01:34:25;2.95;;;1.42;;
45694;SDS011;31408;45.468;9.124;2022-07-29T01:40:05;4.00;;;1.48;;
45694;SDS011;31408;45.468;9.124;2022-07-29T01:42:47;3.78;;;1.35;;
45694;SDS011;31408;45.468;9.124;2022-07-29T01:50:17;3.70;;;1.23;;
45694;SDS011;31408;45.468;9.124;2022-07-29T01:52:44;3.00;;;1.10;;
45694;SDS011;31408;45.468;9.124;2022-07-29T01:55:13;3.45;;;1.73;;
45694;SDS011;31408;45.468;9.124;2022-07-29T01:57:40;1.83;;;1.52;;
45694;SDS011;31408;45.468;9.124;2022-07-29T02:00:11;2.33;;;1.00;;
45694;SDS011;31408;45.468;9.124;2022-07-29T02:02:37;2.22;;;1.52;;
45694;SDS011;31408;45.468;9.124;2022-07-29T02:05:04;4.45;;;1.33;;
45694;SDS011;31408;45.468;9.124;2022-07-29T02:07:31;2.38;;;1.35;;
45694;SDS011;31408;45.468;9.124;2022-07-29T02:09:57;1.55;;;1.20;;
45694;SDS011;31408;45.468;9.124;2022-07-29T02:12:23;4.78;;;1.40;;
45694;SDS011;31408;45.468;9.124;2022-07-29T02:14:51;2.78;;;1.35;;
45694;SDS011;31408;45.468;9.124;2022-07-29T02:17:23;6.47;;;1.80;;
45694;SDS011;31408;45.468;9.124;2022-07-29T02:19:52;2.08;;;1.80;;
45694;SDS011;31408;45.468;9.124;2022-07-29T02:22:21;4.75;;;1.75;;
45694;SDS011;31408;45.468;9.124;2022-07-29T02:24:48;4.13;;;1.70;;
45694;SDS011;31408;45.468;9.124;2022-07-29T02:27:14;1.75;;;1.65;;
45694;SDS011;31408;45.468;9.124;2022-07-29T02:29:40;2.70;;;1.52;;
45694;SDS011;31408;45.468;9.124;2022-07-29T02:32:05;1.98;;;1.42;;
45694;SDS011;31408;45.468;9.124;2022-07-29T02:34:32;2.42;;;1.52;;
45694;SDS011;31408;45.468;9.124;2022-07-29T02:36:58;4.05;;;1.83;;
45694;SDS011;31408;45.468;9.124;2022-07-29T02:39:24;2.67;;;2.05;;
45694;SDS011;31408;45.468;9.124;2022-07-29T02:41:57;5.68;;;1.85;;
45694;SDS011;31408;45.468;9.124;2022-07-29T02:44:27;5.22;;;2.03;;
45694;SDS011;31408;45.468;9.124;2022-07-29T02:47:07;4.10;;;1.88;;
45694;SDS011;31408;45.468;9.124;2022-07-29T02:49:49;14.65;;;2.40;;
45694;SDS011;31408;45.468;9.124;2022-07-29T02:52:20;5.30;;;2.45;;
45694;SDS011;31408;45.468;9.124;2022-07-29T02:54:53;3.80;;;2.10;;
45694;SDS011;31408;45.468;9.124;2022-07-29T02:57:35;2.75;;;2.08;;
45694;SDS011;31408;45.468;9.124;2022-07-29T03:00:05;5.75;;;2.53;;
45694;SDS011;31408;45.468;9.124;2022-07-29T03:02:39;3.70;;;2.08;;
45694;SDS011;31408;45.468;9.124;2022-07-29T03:05:15;4.65;;;2.17;;
45694;SDS011;31408;45.468;9.124;2022-07-29T03:07:43;4.68;;;2.30;;
45694;SDS011;31408;45.468;9.124;2022-07-29T03:10:11;4.47;;;2.20;;
45694;SDS011;31408;45.468;9.124;2022-07-29T03:12:37;2.65;;;1.67;;
45694;SDS011;31408;45.468;9.124;2022-07-29T03:15:03;3.65;;;1.88;;
45694;SDS011;31408;45.468;9.124;2022-07-29T03:17:29;2.95;;;2.00;;
45694;SDS011;31408;45.468;9.124;2022-07-29T03:19:55;2.97;;;2.00;;
45694;SDS011;31408;45.468;9.124;2022-07-29T03:22:20;4.82;;;2.00;;
45694;SDS011;31408;45.468;9.124;2022-07-29T03:24:46;4.15;;;2.20;;
45694;SDS011;31408;45.468;9.124;2022-07-29T03:27:11;2.25;;;1.75;;
45694;SDS011;31408;45.468;9.124;2022-07-29T03:29:37;2.13;;;1.48;;
45694;SDS011;31408;45.468;9.124;2022-07-29T03:32:03;1.92;;;1.40;;
45694;SDS011;31408;45.468;9.124;2022-07-29T03:34:29;2.50;;;1.45;;
45694;SDS011;31408;45.468;9.124;2022-07-29T03:36:55;2.33;;;1.38;;
45694;SDS011;31408;45.468;9.124;2022-07-29T03:39:22;4.50;;;1.55;;
45694;SDS011;31408;45.468;9.124;2022-07-29T03:41:51;1.98;;;1.52;;
45694;SDS011;31408;45.468;9.124;2022-07-29T03:44:17;4.07;;;1.98;;
45694;SDS011;31408;45.468;9.124;2022-07-29T03:46:44;3.50;;;1.58;;
45694;SDS011;31408;45.468;9.124;2022-07-29T03:49:11;2.28;;;1.58;;
45694;SDS011;31408;45.468;9.124;2022-07-29T03:51:37;3.00;;;1.60;;
45694;SDS011;31408;45.468;9.124;2022-07-29T03:54:03;2.60;;;1.50;;
45694;SDS011;31408;45.468;9.124;2022-07-29T03:56:29;2.45;;;1.90;;
45694;SDS011;31408;45.468;9.124;2022-07-29T03:58:57;3.40;;;1.58;;
45694;SDS011;31408;45.468;9.124;2022-07-29T04:01:23;1.70;;;1.60;;
45694;SDS011;31408;45.468;9.124;2022-07-29T04:03:49;4.65;;;2.03;;
45694;SDS011;31408;45.468;9.124;2022-07-29T04:06:16;1.95;;;1.73;;
45694;SDS011;31408;45.468;9.124;2022-07-29T04:08:41;2.10;;;1.60;;
45694;SDS011;31408;45.468;9.124;2022-07-29T04:11:06;3.35;;;2.17;;
45694;SDS011;31408;45.468;9.124;2022-07-29T04:13:32;3.58;;;1.75;;
45694;SDS011;31408;45.468;9.124;2022-07-29T04:15:58;3.67;;;1.83;;
45694;SDS011;31408;45.468;9.124;2022-07-29T04:18:23;4.75;;;1.98;;
45694;SDS011;31408;45.468;9.124;2022-07-29T04:20:49;3.50;;;1.48;;
45694;SDS011;31408;45.468;9.124;2022-07-29T04:23:15;2.90;;;2.60;;
45694;SDS011;31408;45.468;9.124;2022-07-29T04:25:40;1.60;;;1.33;;
45694;SDS011;31408;45.468;9.124;2022-07-29T04:28:06;2.03;;;1.48;;
45694;SDS011;31408;45.468;9.124;2022-07-29T04:30:32;2.33;;;1.45;;
45694;SDS011;31408;45.468;9.124;2022-07-29T04:32:59;3.83;;;1.63;;
45694;SDS011;31408;45.468;9.124;2022-07-29T04:35:26;2.35;;;1.88;;
45694;SDS011;31408;45.468;9.124;2022-07-29T04:37:52;9.77;;;1.60;;
45694;SDS011;31408;45.468;9.124;2022-07-29T04:40:18;2.00;;;1.52;;
45694;SDS011;31408;45.468;9.124;2022-07-29T04:42:44;3.80;;;1.33;;
45694;SDS011;31408;45.468;9.124;2022-07-29T04:45:09;4.20;;;2.17;;
45694;SDS011;31408;45.468;9.124;2022-07-29T04:47:35;3.45;;;1.63;;
45694;SDS011;31408;45.468;9.124;2022-07-29T04:50:00;4.20;;;1.63;;
45694;SDS011;31408;45.468;9.124;2022-07-29T04:52:26;2.22;;;1.60;;
45694;SDS011;31408;45.468;9.124;2022-07-29T04:54:51;3.42;;;1.65;;
45694;SDS011;31408;45.468;9.124;2022-07-29T04:57:17;2.70;;;1.85;;
45694;SDS011;31408;45.468;9.124;2022-07-29T04:59:42;3.85;;;1.63;;
45694;SDS011;31408;45.468;9.124;2022-07-29T05:02:08;9.10;;;4.78;;
45694;SDS011;31408;45.468;9.124;2022-07-29T05:04:34;4.38;;;2.15;;
45694;SDS011;31408;45.468;9.124;2022-07-29T05:06:59;4.13;;;1.67;;
45694;SDS011;31408;45.468;9.124;2022-07-29T05:09:24;3.83;;;1.63;;
45694;SDS011;31408;45.468;9.124;2022-07-29T05:11:50;2.33;;;1.70;;
45694;SDS011;31408;45.468;9.124;2022-07-29T05:14:15;2.30;;;1.48;;
45694;SDS011;31408;45.468;9.124;2022-07-29T05:16:41;4.68;;;1.90;;
45694;SDS011;31408;45.468;9.124;2022-07-29T05:19:06;3.58;;;1.60;;
45694;SDS011;31408;45.468;9.124;2022-07-29T05:21:32;1.88;;;1.55;;
45694;SDS011;31408;45.468;9.124;2022-07-29T05:23:58;5.63;;;2.45;;
45694;SDS011;31408;45.468;9.124;2022-07-29T05:26:26;4.22;;;2.00;;
45694;SDS011;31408;45.468;9.124;2022-07-29T05:28:52;4.18;;;2.13;;
45694;SDS011;31408;45.468;9.124;2022-07-29T05:31:18;1.38;;;1.27;;
45694;SDS011;31408;45.468;9.124;2022-07-29T05:33:44;5.15;;;1.88;;
45694;SDS011;31408;45.468;9.124;2022-07-29T05:36:09;2.20;;;1.63;;
45694;SDS011;31408;45.468;9.124;2022-07-29T05:38:35;3.13;;;1.73;;
45694;SDS011;31408;45.468;9.124;2022-07-29T05:41:00;4.15;;;1.95;;
45694;SDS011;31408;45.468;9.124;2022-07-29T05:43:27;2.80;;;1.70;;
45694;SDS011;31408;45.468;9.124;2022-07-29T05:45:53;3.72;;;2.55;;
45694;SDS011;31408;45.468;9.124;2022-07-29T05:48:19;2.15;;;1.33;;
45694;SDS011;31408;45.468;9.124;2022-07-29T05:50:44;9.32;;;2.05;;
45694;SDS011;31408;45.468;9.124;2022-07-29T05:53:13;6.38;;;2.28;;
45694;SDS011;31408;45.468;9.124;2022-07-29T05:55:38;4.85;;;2.33;;
45694;SDS011;31408;45.468;9.124;2022-07-29T05:58:04;3.70;;;1.88;;
45694;SDS011;31408;45.468;9.124;2022-07-29T06:00:29;2.53;;;2.08;;
45694;SDS011;31408;45.468;9.124;2022-07-29T06:02:55;7.05;;;2.15;;
45694;SDS011;31408;45.468;9.124;2022-07-29T06:05:21;4.45;;;1.65;;
45694;SDS011;31408;45.468;9.124;2022-07-29T06:07:47;2.00;;;1.73;;
45694;SDS011;31408;45.468;9.124;2022-07-29T06:10:12;5.25;;;1.55;;
45694;SDS011;31408;45.468;9.124;2022-07-29T06:12:38;4.22;;;2.35;;
45694;SDS011;31408;45.468;9.124;2022-07-29T06:15:03;6.10;;;2.00;;
45694;SDS011;31408;45.468;9.124;2022-07-29T06:17:29;3.25;;;1.83;;
45694;SDS011;31408;45.468;9.124;2022-07-29T06:19:54;3.25;;;1.80;;
45694;SDS011;31408;45.468;9.124;2022-07-29T06:22:20;4.28;;;1.92;;
45694;SDS011;31408;45.468;9.124;2022-07-29T06:24:45;5.15;;;2.20;;
45694;SDS011;31408;45.468;9.124;2022-07-29T06:27:11;1.75;;;1.50;;
45694;SDS011;31408;45.468;9.124;2022-07-29T06:29:36;2.58;;;1.40;;
45694;SDS011;31408;45.468;9.124;2022-07-29T06:32:02;4.35;;;1.60;;
45694;SDS011;31408;45.468;9.124;2022-07-29T06:34:28;3.38;;;1.38;;
45694;SDS011;31408;45.468;9.124;2022-07-29T06:36:54;4.38;;;2.53;;
45694;SDS011;31408;45.468;9.124;2022-07-29T06:39:19;1.40;;;1.27;;
45694;SDS011;31408;45.468;9.124;2022-07-29T06:41:48;3.30;;;2.22;;
45694;SDS011;31408;45.468;9.124;2022-07-29T06:44:15;2.95;;;1.20;;
45694;SDS011;31408;45.468;9.124;2022-07-29T06:46:41;1.75;;;1.20;;
45694;SDS011;31408;45.468;9.124;2022-07-29T06:49:06;2.00;;;1.55;;
45694;SDS011;31408;45.468;9.124;2022-07-29T06:51:37;5.32;;;1.60;;
45694;SDS011;31408;45.468;9.124;2022-07-29T06:54:02;5.32;;;1.85;;
45694;SDS011;31408;45.468;9.124;2022-07-29T06:56:30;1.38;;;1.10;;
45694;SDS011;31408;45.468;9.124;2022-07-29T06:58:56;5.78;;;1.40;;
45694;SDS011;31408;45.468;9.124;2022-07-29T07:01:22;3.00;;;1.60;;
45694;SDS011;31408;45.468;9.124;2022-07-29T07:03:47;1.85;;;1.40;;
45694;SDS011;31408;45.468;9.124;2022-07-29T07:06:13;4.15;;;1.40;;
45694;SDS011;31408;45.468;9.124;2022-07-29T07:08:38;5.63;;;1.58;;
45694;SDS011;31408;45.468;9.124;2022-07-29T07:11:04;2.10;;;1.17;;
45694;SDS011;31408;45.468;9.124;2022-07-29T07:13:31;2.75;;;1.77;;
45694;SDS011;31408;45.468;9.124;2022-07-29T07:15:59;2.65;;;1.20;;
45694;SDS011;31408;45.468;9.124;2022-07-29T07:18:28;2.30;;;1.20;;
45694;SDS011;31408;45.468;9.124;2022-07-29T07:20:53;7.72;;;2.67;;
45694;SDS011;31408;45.468;9.124;2022-07-29T07:23:19;3.88;;;1.42;;
45694;SDS011;31408;45.468;9.124;2022-07-29T07:25:44;3.05;;;1.25;;
45694;SDS011;31408;45.468;9.124;2022-07-29T07:28:10;4.22;;;1.48;;
45694;SDS011;31408;45.468;9.124;2022-07-29T07:30:35;2.85;;;1.70;;
45694;SDS011;31408;45.468;9.124;2022-07-29T07:33:01;4.65;;;1.52;;
45694;SDS011;31408;45.468;9.124;2022-07-29T07:35:27;2.35;;;1.73;;
45694;SDS011;31408;45.468;9.124;2022-07-29T07:37:53;2.38;;;1.33;;
45694;SDS011;31408;45.468;9.124;2022-07-29T07:40:19;3.33;;;1.40;;
45694;SDS011;31408;45.468;9.124;2022-07-29T07:42:45;5.07;;;1.55;;
45694;SDS011;31408;45.468;9.124;2022-07-29T07:45:10;1.60;;;1.23;;
45694;SDS011;31408;45.468;9.124;2022-07-29T07:47:36;4.05;;;1.23;;
45694;SDS011;31408;45.468;9.124;2022-07-29T07:50:03;1.38;;;1.17;;
45694;SDS011;31408;45.468;9.124;2022-07-29T07:52:31;2.50;;;1.45;;
45694;SDS011;31408;45.468;9.124;2022-07-29T07:54:57;2.80;;;1.17;;
45694;SDS011;31408;45.468;9.124;2022-07-29T07:57:22;1.65;;;1.42;;
45694;SDS011;31408;45.468;9.124;2022-07-29T07:59:48;2.17;;;1.08;;
45694;SDS011;31408;45.468;9.124;2022-07-29T08:02:13;4.40;;;1.23;;
45694;SDS011;31408;45.468;9.124;2022-07-29T08:04:39;2.00;;;1.45;;
45694;SDS011;31408;45.468;9.124;2022-07-29T08:07:06;2.53;;;1.55;;
45694;SDS011;31408;45.468;9.124;2022-07-29T08:09:32;5.43;;;1.88;;
45694;SDS011;31408;45.468;9.124;2022-07-29T08:11:59;5.97;;;1.52;;
45694;SDS011;31408;45.468;9.124;2022-07-29T08:14:24;6.25;;;1.63;;
45694;SDS011;31408;45.468;9.124;2022-07-29T08:16:50;2.10;;;1.63;;
45694;SDS011;31408;45.468;9.124;2022-07-29T08:19:16;1.80;;;1.48;;
45694;SDS011;31408;45.468;9.124;2022-07-29T08:21:41;5.22;;;1.65;;
45694;SDS011;31408;45.468;9.124;2022-07-29T08:24:07;3.42;;;2.28;;
45694;SDS011;31408;45.468;9.124;2022-07-29T08:26:51;7.13;;;1.73;;
45694;SDS011;31408;45.468;9.124;2022-07-29T08:29:16;3.58;;;1.40;;
45694;SDS011;31408;45.468;9.124;2022-07-29T08:31:42;2.70;;;1.70;;
45694;SDS011;31408;45.468;9.124;2022-07-29T08:34:07;5.55;;;2.03;;
45694;SDS011;31408;45.468;9.124;2022-07-29T08:36:33;2.75;;;1.42;;
45694;SDS011;31408;45.468;9.124;2022-07-29T08:38:59;3.20;;;1.67;;
45694;SDS011;31408;45.468;9.124;2022-07-29T08:41:25;2.05;;;1.60;;
45694;SDS011;31408;45.468;9.124;2022-07-29T08:43:51;3.10;;;1.52;;
45694;SDS011;31408;45.468;9.124;2022-07-29T08:46:17;4.03;;;1.73;;
45694;SDS011;31408;45.468;9.124;2022-07-29T08:48:43;2.05;;;1.50;;
45694;SDS011;31408;45.468;9.124;2022-07-29T08:51:12;3.22;;;1.55;;
45694;SDS011;31408;45.468;9.124;2022-07-29T08:53:40;6.97;;;1.80;;
45694;SDS011;31408;45.468;9.124;2022-07-29T08:56:10;4.07;;;1.58;;
45694;SDS011;31408;45.468;9.124;2022-07-29T08:58:37;3.15;;;1.75;;
45694;SDS011;31408;45.468;9.124;2022-07-29T09:01:03;2.13;;;1.60;;
45694;SDS011;31408;45.468;9.124;2022-07-29T09:03:32;3.55;;;1.92;;
45694;SDS011;31408;45.468;9.124;2022-07-29T09:05:58;3.70;;;1.92;;
45694;SDS011;31408;45.468;9.124;2022-07-29T09:08:23;4.18;;;1.50;;
45694;SDS011;31408;45.468;9.124;2022-07-29T09:10:49;3.95;;;1.80;;
45694;SDS011;31408;45.468;9.124;2022-07-29T09:13:16;2.85;;;1.70;;
45694;SDS011;31408;45.468;9.124;2022-07-29T09:15:41;6.72;;;2.20;;
45694;SDS011;31408;45.468;9.124;2022-07-29T09:18:07;3.13;;;1.98;;
45694;SDS011;31408;45.468;9.124;2022-07-29T09:20:32;3.83;;;1.73;;
45694;SDS011;31408;45.468;9.124;2022-07-29T09:23:16;2.35;;;2.13;;
45694;SDS011;31408;45.468;9.124;2022-07-29T09:25:42;4.35;;;1.75;;
45694;SDS011;31408;45.468;9.124;2022-07-29T09:28:11;2.03;;;1.40;;
45694;SDS011;31408;45.468;9.124;2022-07-29T09:30:51;5.28;;;1.65;;
45694;SDS011;31408;45.468;9.124;2022-07-29T09:33:18;7.95;;;2.05;;
45694;SDS011;31408;45.468;9.124;2022-07-29T09:35:43;6.03;;;2.40;;
45694;SDS011;31408;45.468;9.124;2022-07-29T09:38:09;3.90;;;2.08;;
45694;SDS011;31408;45.468;9.124;2022-07-29T09:40:36;5.05;;;1.90;;
45694;SDS011;31408;45.468;9.124;2022-07-29T09:43:09;2.38;;;1.67;;
45694;SDS011;31408;45.468;9.124;2022-07-29T09:45:35;2.42;;;1.77;;
45694;SDS011;31408;45.468;9.124;2022-07-29T09:48:15;2.10;;;1.73;;
45694;SDS011;31408;45.468;9.124;2022-07-29T09:50:42;5.40;;;1.60;;
45694;SDS011;31408;45.468;9.124;2022-07-29T09:53:09;2.55;;;1.77;;
45694;SDS011;31408;45.468;9.124;2022-07-29T09:55:51;4.05;;;2.05;;
45694;SDS011;31408;45.468;9.124;2022-07-29T09:58:20;4.20;;;2.08;;
45694;SDS011;31408;45.468;9.124;2022-07-29T10:00:48;4.18;;;2.22;;
45694;SDS011;31408;45.468;9.124;2022-07-29T10:03:15;2.50;;;2.08;;
45694;SDS011;31408;45.468;9.124;2022-07-29T10:05:41;2.97;;;1.95;;
45694;SDS011;31408;45.468;9.124;2022-07-29T10:08:08;1.95;;;1.58;;
45694;SDS011;31408;45.468;9.124;2022-07-29T10:10:35;6.75;;;2.10;;
45694;SDS011;31408;45.468;9.124;2022-07-29T10:13:06;3.88;;;2.58;;
45694;SDS011;31408;45.468;9.124;2022-07-29T10:15:36;4.63;;;2.17;;
45694;SDS011;31408;45.468;9.124;2022-07-29T10:18:04;5.28;;;2.33;;
45694;SDS011;31408;45.468;9.124;2022-07-29T10:20:30;4.10;;;2.13;;
45694;SDS011;31408;45.468;9.124;2022-07-29T10:22:55;5.30;;;2.03;;
45694;SDS011;31408;45.468;9.124;2022-07-29T10:25:21;4.80;;;2.20;;
45694;SDS011;31408;45.468;9.124;2022-07-29T10:27:48;2.45;;;1.92;;
45694;SDS011;31408;45.468;9.124;2022-07-29T10:30:16;3.10;;;2.25;;
45694;SDS011;31408;45.468;9.124;2022-07-29T10:41:57;4.97;;;2.08;;
45694;SDS011;31408;45.468;9.124;2022-07-29T10:44:18;4.22;;;2.38;;
45694;SDS011;31408;45.468;9.124;2022-07-29T10:46:45;6.28;;;2.67;;
45694;SDS011;31408;45.468;9.124;2022-07-29T10:49:20;6.15;;;1.95;;
45694;SDS011;31408;45.468;9.124;2022-07-29T10:57:11;2.63;;;1.92;;
45694;SDS011;31408;45.468;9.124;2022-07-29T10:59:50;4.95;;;1.83;;
45694;SDS011;31408;45.468;9.124;2022-07-29T11:07:23;2.47;;;1.63;;
45694;SDS011;31408;45.468;9.124;2022-07-29T11:15:09;4.03;;;2.35;;
45694;SDS011;31408;45.468;9.124;2022-07-29T11:20:41;3.13;;;2.03;;
45694;SDS011;31408;45.468;9.124;2022-07-29T11:25:45;3.55;;;2.10;;
45694;SDS011;31408;45.468;9.124;2022-07-29T11:28:16;2.28;;;1.98;;
45694;SDS011;31408;45.468;9.124;2022-07-29T11:30:50;3.17;;;2.60;;
45694;SDS011;31408;45.468;9.124;2022-07-29T11:33:26;4.10;;;2.17;;
45694;SDS011;31408;45.468;9.124;2022-07-29T11:36:06;7.22;;;2.83;;
45694;SDS011;31408;45.468;9.124;2022-07-29T11:38:33;3.97;;;2.45;;
45694;SDS011;31408;45.468;9.124;2022-07-29T11:43:46;5.80;;;2.75;;
45694;SDS011;31408;45.468;9.124;2022-07-29T11:46:11;2.80;;;2.25;;
45694;SDS011;31408;45.468;9.124;2022-07-29T11:48:37;7.07;;;2.67;;
45694;SDS011;31408;45.468;9.124;2022-07-29T11:51:09;8.82;;;2.38;;
45694;SDS011;31408;45.468;9.124;2022-07-29T11:53:36;4.72;;;2.35;;
45694;SDS011;31408;45.468;9.124;2022-07-29T11:56:01;2.55;;;2.17;;
45694;SDS011;31408;45.468;9.124;2022-07-29T11:58:29;7.82;;;2.22;;
45694;SDS011;31408;45.468;9.124;2022-07-29T12:00:55;5.25;;;2.65;;
45694;SDS011;31408;45.468;9.124;2022-07-29T12:03:26;4.25;;;2.58;;
45694;SDS011;31408;45.468;9.124;2022-07-29T12:05:52;2.67;;;1.80;;
45694;SDS011;31408;45.468;9.124;2022-07-29T12:08:19;4.78;;;2.40;;
45694;SDS011;31408;45.468;9.124;2022-07-29T12:10:47;4.03;;;2.58;;
45694;SDS011;31408;45.468;9.124;2022-07-29T12:13:15;4.65;;;2.45;;
45694;SDS011;31408;45.468;9.124;2022-07-29T12:15:41;8.63;;;2.78;;
45694;SDS011;31408;45.468;9.124;2022-07-29T12:18:13;6.28;;;2.92;;
45694;SDS011;31408;45.468;9.124;2022-07-29T12:20:39;4.60;;;3.03;;
45694;SDS011;31408;45.468;9.124;2022-07-29T12:23:07;3.45;;;2.42;;
45694;SDS011;31408;45.468;9.124;2022-07-29T12:25:34;6.10;;;3.20;;
45694;SDS011;31408;45.468;9.124;2022-07-29T12:28:05;3.83;;;2.22;;
45694;SDS011;31408;45.468;9.124;2022-07-29T12:35:39;4.75;;;3.70;;
45694;SDS011;31408;45.468;9.124;2022-07-29T12:38:05;4.82;;;2.97;;
45694;SDS011;31408;45.468;9.124;2022-07-29T12:40:31;4.45;;;3.05;;
45694;SDS011;31408;45.468;9.124;2022-07-29T12:43:10;5.53;;;3.17;;
45694;SDS011;31408;45.468;9.124;2022-07-29T12:45:37;17.00;;;3.63;;
45694;SDS011;31408;45.468;9.124;2022-07-29T12:48:04;6.82;;;2.95;;
45694;SDS011;31408;45.468;9.124;2022-07-29T12:50:30;5.65;;;2.50;;
45694;SDS011;31408;45.468;9.124;2022-07-29T12:53:12;4.00;;;2.83;;
45694;SDS011;31408;45.468;9.124;2022-07-29T12:55:42;8.63;;;3.35;;
45694;SDS011;31408;45.468;9.124;2022-07-29T12:58:10;7.75;;;2.80;;
45694;SDS011;31408;45.468;9.124;2022-07-29T13:00:35;4.65;;;3.00;;
45694;SDS011;31408;45.468;9.124;2022-07-29T13:03:01;7.47;;;2.75;;
45694;SDS011;31408;45.468;9.124;2022-07-29T13:05:39;5.63;;;3.03;;
45694;SDS011;31408;45.468;9.124;2022-07-29T13:08:09;6.40;;;2.65;;
45694;SDS011;31408;45.468;9.124;2022-07-29T13:10:45;4.85;;;3.15;;
45694;SDS011;31408;45.468;9.124;2022-07-29T13:13:12;5.60;;;3.55;;
45694;SDS011;31408;45.468;9.124;2022-07-29T13:15:40;6.95;;;3.25;;
45694;SDS011;31408;45.468;9.124;2022-07-29T13:18:26;10.82;;;4.97;;
45694;SDS011;31408;45.468;9.124;2022-07-29T13:20:52;6.07;;;3.63;;
45694;SDS011;31408;45.468;9.124;2022-07-29T13:23:17;17.38;;;8.10;;
45694;SDS011;31408;45.468;9.124;2022-07-29T13:25:43;9.75;;;6.05;;
45694;SDS011;31408;45.468;9.124;2022-07-29T13:28:08;8.07;;;4.20;;
45694;SDS011;31408;45.468;9.124;2022-07-29T13:30:33;5.97;;;3.80;;
45694;SDS011;31408;45.468;9.124;2022-07-29T13:32:59;4.80;;;3.42;;
45694;SDS011;31408;45.468;9.124;2022-07-29T13:35:24;5.88;;;3.35;;
45694;SDS011;31408;45.468;9.124;2022-07-29T13:37:50;7.82;;;3.38;;
45694;SDS011;31408;45.468;9.124;2022-07-29T13:40:15;7.07;;;3.22;;
45694;SDS011;31408;45.468;9.124;2022-07-29T13:42:41;8.00;;;3.45;;
45694;SDS011;31408;45.468;9.124;2022-07-29T13:45:07;5.40;;;3.47;;
45694;SDS011;31408;45.468;9.124;2022-07-29T13:47:34;15.68;;;7.47;;
45694;SDS011;31408;45.468;9.124;2022-07-29T13:50:02;13.85;;;7.28;;
45694;SDS011;31408;45.468;9.124;2022-07-29T13:52:30;5.72;;;3.22;;
45694;SDS011;31408;45.468;9.124;2022-07-29T13:54:55;3.08;;;2.60;;
45694;SDS011;31408;45.468;9.124;2022-07-29T13:57:21;8.50;;;3.13;;
45694;SDS011;31408;45.468;9.124;2022-07-29T13:59:46;9.57;;;3.30;;
45694;SDS011;31408;45.468;9.124;2022-07-29T14:02:12;9.73;;;3.50;;
45694;SDS011;31408;45.468;9.124;2022-07-29T14:04:37;5.35;;;3.45;;
45694;SDS011;31408;45.468;9.124;2022-07-29T14:07:03;5.15;;;2.90;;
45694;SDS011;31408;45.468;9.124;2022-07-29T14:09:29;3.60;;;3.00;;
45694;SDS011;31408;45.468;9.124;2022-07-29T14:11:54;6.72;;;3.50;;
45694;SDS011;31408;45.468;9.124;2022-07-29T14:14:20;4.93;;;3.15;;
45694;SDS011;31408;45.468;9.124;2022-07-29T14:16:45;5.25;;;3.08;;
45694;SDS011;31408;45.468;9.124;2022-07-29T14:19:11;6.00;;;3.20;;
45694;SDS011;31408;45.468;9.124;2022-07-29T14:21:37;5.88;;;2.92;;
45694;SDS011;31408;45.468;9.124;2022-07-29T14:24:03;3.67;;;2.33;;
45694;SDS011;31408;45.468;9.124;2022-07-29T14:26:28;5.35;;;3.00;;
45694;SDS011;31408;45.468;9.124;2022-07-29T14:28:54;8.23;;;2.80;;
45694;SDS011;31408;45.468;9.124;2022-07-29T14:31:19;4.75;;;3.28;;
45694;SDS011;31408;45.468;9.124;2022-07-29T14:33:45;3.95;;;2.75;;
45694;SDS011;31408;45.468;9.124;2022-07-29T14:36:10;6.45;;;2.95;;
45694;SDS011;31408;45.468;9.124;2022-07-29T14:38:36;8.40;;;3.10;;
45694;SDS011;31408;45.468;9.124;2022-07-29T14:41:02;6.13;;;3.00;;
45694;SDS011;31408;45.468;9.124;2022-07-29T14:43:28;3.78;;;2.50;;
45694;SDS011;31408;45.468;9.124;2022-07-29T14:45:53;4.22;;;3.08;;
45694;SDS011;31408;45.468;9.124;2022-07-29T14:48:19;5.63;;;2.80;;
45694;SDS011;31408;45.468;9.124;2022-07-29T14:50:44;4.10;;;2.70;;
45694;SDS011;31408;45.468;9.124;2022-07-29T14:53:10;3.85;;;2.55;;
45694;SDS011;31408;45.468;9.124;2022-07-29T14:55:37;4.18;;;2.75;;
45694;SDS011;31408;45.468;9.124;2022-07-29T14:58:02;8.35;;;4.07;;
45694;SDS011;31408;45.468;9.124;2022-07-29T15:00:28;3.58;;;2.38;;
45694;SDS011;31408;45.468;9.124;2022-07-29T15:02:57;4.05;;;3.00;;
45694;SDS011;31408;45.468;9.124;2022-07-29T15:05:23;3.90;;;3.00;;
45694;SDS011;31408;45.468;9.124;2022-07-29T15:07:48;5.72;;;2.97;;
45694;SDS011;31408;45.468;9.124;2022-07-29T15:10:14;4.13;;;2.90;;
45694;SDS011;31408;45.468;9.124;2022-07-29T15:12:39;8.70;;;3.00;;
45694;SDS011;31408;45.468;9.124;2022-07-29T15:15:05;8.20;;;3.00;;
45694;SDS011;31408;45.468;9.124;2022-07-29T15:17:32;4.78;;;3.22;;
45694;SDS011;31408;45.468;9.124;2022-07-29T15:19:57;11.90;;;3.35;;
45694;SDS011;31408;45.468;9.124;2022-07-29T15:22:23;6.47;;;3.35;;
45694;SDS011;31408;45.468;9.124;2022-07-29T15:24:48;11.77;;;3.72;;
45694;SDS011;31408;45.468;9.124;2022-07-29T15:27:14;6.60;;;3.88;;
45694;SDS011;31408;45.468;9.124;2022-07-29T15:29:42;13.77;;;4.10;;
45694;SDS011;31408;45.468;9.124;2022-07-29T15:32:09;11.93;;;4.30;;
45694;SDS011;31408;45.468;9.124;2022-07-29T15:34:35;14.85;;;4.57;;
45694;SDS011;31408;45.468;9.124;2022-07-29T15:37:01;14.95;;;4.97;;
45694;SDS011;31408;45.468;9.124;2022-07-29T15:39:26;13.65;;;4.90;;
45694;SDS011;31408;45.468;9.124;2022-07-29T15:41:51;9.95;;;5.25;;
45694;SDS011;31408;45.468;9.124;2022-07-29T15:44:17;13.57;;;4.43;;
45694;SDS011;31408;45.468;9.124;2022-07-29T15:46:43;10.13;;;4.68;;